sensor_id;sensor_type;location;lat;lon;timestamp;P1;durP1;ratioP1;P2;durP2;ratioP2
434;SDS011;204;48.942;9.256;2023-05-02T00:02:14;11.90;;;11.30;;
434;SDS011;204;48.942;9.256;2023-05-02T00:04:40;11.37;;;10.77;;
434;SDS011;204;48.942;9.256;2023-05-02T00:07:06;10.83;;;10.27;;
434;SDS011;204;48.942;9.256;2023-05-02T00:09:31;11.40;;;10.80;;
434;SDS011;204;48.942;9.256;2023-05-02T00:11:57;11.30;;;10.70;;
434;SDS011;204;48.942;9.256;2023-05-02T00:14:23;10.98;;;10.38;;
434;SDS011;204;48.942;9.256;2023-05-02T00:16:49;12.07;;;10.80;;
434;SDS011;204;48.942;9.256;2023-05-02T00:19:15;12.90;;;10.70;;
434;SDS011;204;48.942;9.256;2023-05-02T00:21:40;10.87;;;10.27;;
434;SDS011;204;48.942;9.256;2023-05-02T00:24:06;11.47;;;10.87;;
434;SDS011;204;48.942;9.256;2023-05-02T00:26:31;11.70;;;11.10;;
434;SDS011;204;48.942;9.256;2023-05-02T00:28:57;14.33;;;13.57;;
434;SDS011;204;48.942;9.256;2023-05-02T00:31:23;12.10;;;11.50;;
434;SDS011;204;48.942;9.256;2023-05-02T00:33:48;13.30;;;12.00;;
434;SDS011;204;48.942;9.256;2023-05-02T00:36:14;13.17;;;12.47;;
434;SDS011;204;48.942;9.256;2023-05-02T00:38:40;12.85;;;12.15;;
434;SDS011;204;48.942;9.256;2023-05-02T00:41:06;12.90;;;12.20;;
434;SDS011;204;48.942;9.256;2023-05-02T00:43:31;13.93;;;13.23;;
434;SDS011;204;48.942;9.256;2023-05-02T00:45:57;14.77;;;13.03;;
434;SDS011;204;48.942;9.256;2023-05-02T00:48:23;12.90;;;12.20;;
434;SDS011;204;48.942;9.256;2023-05-02T00:50:49;13.50;;;12.80;;
434;SDS011;204;48.942;9.256;2023-05-02T00:53:15;11.80;;;11.20;;
434;SDS011;204;48.942;9.256;2023-05-02T00:55:40;12.03;;;11.43;;
434;SDS011;204;48.942;9.256;2023-05-02T00:58:13;12.00;;;11.40;;
434;SDS011;204;48.942;9.256;2023-05-02T01:09:03;13.25;;;12.55;;
434;SDS011;204;48.942;9.256;2023-05-02T01:11:34;13.00;;;12.30;;
434;SDS011;204;48.942;9.256;2023-05-02T01:14:11;12.40;;;11.80;;
434;SDS011;204;48.942;9.256;2023-05-02T01:16:38;14.25;;;13.55;;
434;SDS011;204;48.942;9.256;2023-05-02T01:19:11;12.00;;;11.40;;
434;SDS011;204;48.942;9.256;2023-05-02T01:21:49;13.43;;;12.73;;
434;SDS011;204;48.942;9.256;2023-05-02T01:24:27;15.35;;;13.02;;
434;SDS011;204;48.942;9.256;2023-05-02T01:27:21;14.52;;;13.60;;
434;SDS011;204;48.942;9.256;2023-05-02T01:29:55;12.48;;;11.85;;
434;SDS011;204;48.942;9.256;2023-05-02T01:32:22;13.75;;;13.05;;
434;SDS011;204;48.942;9.256;2023-05-02T01:34:50;14.15;;;13.45;;
434;SDS011;204;48.942;9.256;2023-05-02T01:37:18;13.45;;;12.75;;
434;SDS011;204;48.942;9.256;2023-05-02T01:39:45;13.70;;;13.00;;
434;SDS011;204;48.942;9.256;2023-05-02T01:42:13;15.30;;;13.73;;
434;SDS011;204;48.942;9.256;2023-05-02T01:44:41;14.45;;;13.75;;
434;SDS011;204;48.942;9.256;2023-05-02T01:47:08;15.35;;;14.55;;
434;SDS011;204;48.942;9.256;2023-05-02T01:49:34;16.33;;;15.53;;
434;SDS011;204;48.942;9.256;2023-05-02T01:52:02;17.25;;;15.15;;
434;SDS011;204;48.942;9.256;2023-05-02T01:54:32;14.70;;;13.95;;
434;SDS011;204;48.942;9.256;2023-05-02T01:57:00;14.75;;;13.98;;
434;SDS011;204;48.942;9.256;2023-05-02T01:59:28;14.52;;;13.82;;
434;SDS011;204;48.942;9.256;2023-05-02T02:01:55;15.00;;;13.90;;
434;SDS011;204;48.942;9.256;2023-05-02T02:04:23;14.63;;;13.30;;
434;SDS011;204;48.942;9.256;2023-05-02T02:06:52;13.30;;;12.60;;
434;SDS011;204;48.942;9.256;2023-05-02T02:09:21;14.10;;;13.43;;
434;SDS011;204;48.942;9.256;2023-05-02T02:15:13;18.50;;;13.80;;
434;SDS011;204;48.942;9.256;2023-05-02T02:17:48;16.25;;;14.80;;
434;SDS011;204;48.942;9.256;2023-05-02T02:20:21;13.48;;;12.77;;
434;SDS011;204;48.942;9.256;2023-05-02T02:22:46;13.50;;;12.70;;
434;SDS011;204;48.942;9.256;2023-05-02T02:25:15;14.00;;;13.30;;
434;SDS011;204;48.942;9.256;2023-05-02T02:27:42;14.23;;;13.48;;
434;SDS011;204;48.942;9.256;2023-05-02T02:30:08;14.02;;;13.32;;
434;SDS011;204;48.942;9.256;2023-05-02T02:32:34;16.75;;;14.70;;
434;SDS011;204;48.942;9.256;2023-05-02T02:35:00;14.93;;;14.13;;
434;SDS011;204;48.942;9.256;2023-05-02T02:37:34;16.70;;;14.50;;
434;SDS011;204;48.942;9.256;2023-05-02T02:40:16;17.20;;;15.23;;
434;SDS011;204;48.942;9.256;2023-05-02T02:59:18;15.27;;;14.48;;
434;SDS011;204;48.942;9.256;2023-05-02T03:01:51;16.20;;;15.40;;
434;SDS011;204;48.942;9.256;2023-05-02T03:04:33;17.48;;;16.60;;
434;SDS011;204;48.942;9.256;2023-05-02T03:07:02;17.77;;;16.88;;
434;SDS011;204;48.942;9.256;2023-05-02T03:09:39;17.57;;;16.27;;
434;SDS011;204;48.942;9.256;2023-05-02T03:12:08;18.70;;;16.35;;
434;SDS011;204;48.942;9.256;2023-05-02T03:14:34;16.90;;;16.00;;
434;SDS011;204;48.942;9.256;2023-05-02T03:17:01;17.48;;;16.58;;
434;SDS011;204;48.942;9.256;2023-05-02T03:19:27;17.30;;;16.40;;
434;SDS011;204;48.942;9.256;2023-05-02T03:21:53;17.80;;;16.53;;
434;SDS011;204;48.942;9.256;2023-05-02T03:24:18;17.10;;;15.57;;
434;SDS011;204;48.942;9.256;2023-05-02T03:26:44;16.20;;;15.40;;
434;SDS011;204;48.942;9.256;2023-05-02T03:29:11;15.32;;;14.32;;
434;SDS011;204;48.942;9.256;2023-05-02T03:31:37;17.80;;;14.93;;
434;SDS011;204;48.942;9.256;2023-05-02T03:34:02;17.37;;;14.17;;
434;SDS011;204;48.942;9.256;2023-05-02T03:36:28;14.33;;;13.63;;
434;SDS011;204;48.942;9.256;2023-05-02T03:38:54;14.37;;;13.67;;
434;SDS011;204;48.942;9.256;2023-05-02T03:41:19;13.90;;;12.80;;
434;SDS011;204;48.942;9.256;2023-05-02T03:43:45;14.33;;;13.63;;
434;SDS011;204;48.942;9.256;2023-05-02T03:46:11;14.30;;;13.60;;
434;SDS011;204;48.942;9.256;2023-05-02T03:48:37;14.40;;;13.70;;
434;SDS011;204;48.942;9.256;2023-05-02T03:51:03;13.87;;;13.17;;
434;SDS011;204;48.942;9.256;2023-05-02T03:53:29;17.10;;;14.25;;
434;SDS011;204;48.942;9.256;2023-05-02T03:55:56;15.70;;;14.90;;
434;SDS011;204;48.942;9.256;2023-05-02T03:58:22;15.95;;;15.18;;
434;SDS011;204;48.942;9.256;2023-05-02T04:00:49;14.05;;;13.35;;
434;SDS011;204;48.942;9.256;2023-05-02T04:03:16;14.43;;;13.68;;
434;SDS011;204;48.942;9.256;2023-05-02T04:05:42;14.20;;;13.50;;
434;SDS011;204;48.942;9.256;2023-05-02T04:08:07;12.87;;;12.17;;
434;SDS011;204;48.942;9.256;2023-05-02T04:10:34;13.40;;;12.70;;
434;SDS011;204;48.942;9.256;2023-05-02T04:12:59;15.00;;;14.20;;
434;SDS011;204;48.942;9.256;2023-05-02T04:15:27;13.32;;;12.63;;
434;SDS011;204;48.942;9.256;2023-05-02T04:17:52;14.50;;;13.80;;
434;SDS011;204;48.942;9.256;2023-05-02T04:20:18;13.27;;;12.57;;
434;SDS011;204;48.942;9.256;2023-05-02T04:22:44;13.80;;;13.10;;
434;SDS011;204;48.942;9.256;2023-05-02T04:25:11;13.73;;;13.02;;
434;SDS011;204;48.942;9.256;2023-05-02T04:27:37;13.23;;;12.52;;
434;SDS011;204;48.942;9.256;2023-05-02T04:30:03;12.37;;;11.77;;
434;SDS011;204;48.942;9.256;2023-05-02T04:32:29;13.18;;;12.48;;
434;SDS011;204;48.942;9.256;2023-05-02T04:34:55;12.80;;;12.10;;
434;SDS011;204;48.942;9.256;2023-05-02T04:37:21;13.50;;;12.83;;
434;SDS011;204;48.942;9.256;2023-05-02T04:39:47;12.50;;;11.87;;
434;SDS011;204;48.942;9.256;2023-05-02T04:42:12;13.50;;;12.40;;
434;SDS011;204;48.942;9.256;2023-05-02T04:44:38;14.30;;;13.60;;
434;SDS011;204;48.942;9.256;2023-05-02T04:47:04;13.30;;;12.60;;
434;SDS011;204;48.942;9.256;2023-05-02T04:49:29;12.87;;;12.17;;
434;SDS011;204;48.942;9.256;2023-05-02T04:51:56;12.48;;;11.85;;
434;SDS011;204;48.942;9.256;2023-05-02T04:54:21;12.90;;;12.20;;
434;SDS011;204;48.942;9.256;2023-05-02T04:56:49;12.25;;;11.60;;
434;SDS011;204;48.942;9.256;2023-05-02T04:59:14;12.57;;;11.95;;
434;SDS011;204;48.942;9.256;2023-05-02T05:01:41;12.60;;;11.95;;
434;SDS011;204;48.942;9.256;2023-05-02T05:04:06;12.20;;;11.60;;
434;SDS011;204;48.942;9.256;2023-05-02T05:06:32;12.97;;;12.27;;
434;SDS011;204;48.942;9.256;2023-05-02T05:08:58;12.53;;;11.83;;
434;SDS011;204;48.942;9.256;2023-05-02T05:11:24;12.50;;;11.88;;
434;SDS011;204;48.942;9.256;2023-05-02T05:13:50;12.20;;;11.60;;
434;SDS011;204;48.942;9.256;2023-05-02T05:16:15;14.00;;;11.40;;
434;SDS011;204;48.942;9.256;2023-05-02T05:18:41;12.93;;;12.23;;
434;SDS011;204;48.942;9.256;2023-05-02T05:21:07;11.90;;;11.30;;
434;SDS011;204;48.942;9.256;2023-05-02T05:23:33;12.93;;;12.23;;
434;SDS011;204;48.942;9.256;2023-05-02T05:26:12;14.25;;;11.98;;
434;SDS011;204;48.942;9.256;2023-05-02T05:28:39;11.38;;;10.77;;
434;SDS011;204;48.942;9.256;2023-05-02T05:31:05;11.93;;;11.07;;
434;SDS011;204;48.942;9.256;2023-05-02T05:33:40;13.52;;;11.98;;
434;SDS011;204;48.942;9.256;2023-05-02T05:36:06;12.13;;;11.53;;
434;SDS011;204;48.942;9.256;2023-05-02T05:38:33;11.63;;;11.02;;
434;SDS011;204;48.942;9.256;2023-05-02T05:40:58;11.43;;;10.83;;
434;SDS011;204;48.942;9.256;2023-05-02T05:43:25;11.23;;;10.63;;
434;SDS011;204;48.942;9.256;2023-05-02T05:45:51;11.90;;;11.30;;
434;SDS011;204;48.942;9.256;2023-05-02T05:48:17;11.32;;;10.73;;
434;SDS011;204;48.942;9.256;2023-05-02T05:50:42;13.30;;;9.63;;
434;SDS011;204;48.942;9.256;2023-05-02T05:53:08;11.43;;;10.83;;
434;SDS011;204;48.942;9.256;2023-05-02T05:55:34;10.57;;;10.00;;
434;SDS011;204;48.942;9.256;2023-05-02T05:58:00;10.63;;;9.93;;
434;SDS011;204;48.942;9.256;2023-05-02T06:00:25;11.47;;;10.17;;
434;SDS011;204;48.942;9.256;2023-05-02T06:02:51;10.27;;;9.77;;
434;SDS011;204;48.942;9.256;2023-05-02T06:05:17;9.67;;;9.20;;
434;SDS011;204;48.942;9.256;2023-05-02T06:07:42;11.10;;;9.40;;
434;SDS011;204;48.942;9.256;2023-05-02T06:10:08;13.20;;;9.67;;
434;SDS011;204;48.942;9.256;2023-05-02T06:12:34;9.98;;;8.77;;
434;SDS011;204;48.942;9.256;2023-05-02T06:15:00;9.53;;;9.03;;
434;SDS011;204;48.942;9.256;2023-05-02T06:17:25;8.70;;;8.20;;
434;SDS011;204;48.942;9.256;2023-05-02T06:19:51;10.13;;;9.63;;
434;SDS011;204;48.942;9.256;2023-05-02T06:22:17;8.93;;;8.43;;
434;SDS011;204;48.942;9.256;2023-05-02T06:24:42;8.07;;;7.67;;
434;SDS011;204;48.942;9.256;2023-05-02T06:27:08;10.30;;;8.50;;
434;SDS011;204;48.942;9.256;2023-05-02T06:29:33;9.70;;;9.20;;
434;SDS011;204;48.942;9.256;2023-05-02T06:31:59;9.53;;;9.03;;
434;SDS011;204;48.942;9.256;2023-05-02T06:34:25;9.10;;;7.93;;
434;SDS011;204;48.942;9.256;2023-05-02T06:36:56;9.47;;;8.97;;
434;SDS011;204;48.942;9.256;2023-05-02T06:39:22;9.32;;;8.82;;
434;SDS011;204;48.942;9.256;2023-05-02T06:41:47;8.63;;;7.87;;
434;SDS011;204;48.942;9.256;2023-05-02T06:44:13;8.53;;;8.03;;
434;SDS011;204;48.942;9.256;2023-05-02T06:46:38;10.13;;;9.63;;
434;SDS011;204;48.942;9.256;2023-05-02T06:49:04;9.73;;;9.23;;
434;SDS011;204;48.942;9.256;2023-05-02T06:51:30;9.90;;;9.40;;
434;SDS011;204;48.942;9.256;2023-05-02T06:53:56;10.00;;;9.40;;
434;SDS011;204;48.942;9.256;2023-05-02T06:56:22;9.07;;;8.57;;
434;SDS011;204;48.942;9.256;2023-05-02T06:58:49;10.40;;;9.88;;
434;SDS011;204;48.942;9.256;2023-05-02T07:01:15;10.23;;;9.73;;
434;SDS011;204;48.942;9.256;2023-05-02T07:03:41;10.23;;;9.73;;
434;SDS011;204;48.942;9.256;2023-05-02T07:06:06;10.43;;;9.90;;
434;SDS011;204;48.942;9.256;2023-05-02T07:08:32;11.80;;;11.20;;
434;SDS011;204;48.942;9.256;2023-05-02T07:10:58;12.40;;;11.20;;
434;SDS011;204;48.942;9.256;2023-05-02T07:13:23;9.77;;;9.27;;
434;SDS011;204;48.942;9.256;2023-05-02T07:15:49;11.10;;;10.50;;
434;SDS011;204;48.942;9.256;2023-05-02T07:18:14;11.13;;;10.53;;
434;SDS011;204;48.942;9.256;2023-05-02T07:20:40;10.37;;;9.60;;
434;SDS011;204;48.942;9.256;2023-05-02T07:23:06;14.68;;;10.48;;
434;SDS011;204;48.942;9.256;2023-05-02T07:25:33;11.65;;;11.05;;
434;SDS011;204;48.942;9.256;2023-05-02T07:27:59;11.73;;;11.13;;
434;SDS011;204;48.942;9.256;2023-05-02T07:30:24;12.00;;;11.40;;
434;SDS011;204;48.942;9.256;2023-05-02T07:32:50;11.30;;;10.70;;
434;SDS011;204;48.942;9.256;2023-05-02T07:35:15;11.33;;;10.73;;
434;SDS011;204;48.942;9.256;2023-05-02T07:37:41;12.17;;;11.57;;
434;SDS011;204;48.942;9.256;2023-05-02T07:40:07;11.50;;;10.90;;
434;SDS011;204;48.942;9.256;2023-05-02T07:42:33;13.43;;;11.40;;
434;SDS011;204;48.942;9.256;2023-05-02T07:45:00;10.20;;;9.70;;
434;SDS011;204;48.942;9.256;2023-05-02T07:47:26;11.90;;;11.10;;
434;SDS011;204;48.942;9.256;2023-05-02T07:49:52;11.60;;;11.00;;
434;SDS011;204;48.942;9.256;2023-05-02T07:52:18;13.23;;;12.52;;
434;SDS011;204;48.942;9.256;2023-05-02T07:54:44;13.02;;;12.32;;
434;SDS011;204;48.942;9.256;2023-05-02T07:57:12;12.63;;;11.97;;
434;SDS011;204;48.942;9.256;2023-05-02T07:59:38;14.20;;;13.50;;
434;SDS011;204;48.942;9.256;2023-05-02T08:02:03;15.13;;;14.33;;
434;SDS011;204;48.942;9.256;2023-05-02T08:04:29;16.07;;;15.27;;
434;SDS011;204;48.942;9.256;2023-05-02T08:06:55;16.00;;;15.20;;
434;SDS011;204;48.942;9.256;2023-05-02T08:09:20;16.20;;;15.40;;
434;SDS011;204;48.942;9.256;2023-05-02T08:11:46;17.90;;;17.00;;
434;SDS011;204;48.942;9.256;2023-05-02T08:14:12;17.23;;;16.30;;
434;SDS011;204;48.942;9.256;2023-05-02T08:16:38;17.17;;;16.27;;
434;SDS011;204;48.942;9.256;2023-05-02T08:19:03;16.63;;;15.80;;
434;SDS011;204;48.942;9.256;2023-05-02T08:21:29;17.97;;;16.80;;
434;SDS011;204;48.942;9.256;2023-05-02T08:23:56;18.70;;;17.80;;
434;SDS011;204;48.942;9.256;2023-05-02T08:26:23;19.03;;;17.93;;
434;SDS011;204;48.942;9.256;2023-05-02T08:28:49;17.80;;;16.90;;
434;SDS011;204;48.942;9.256;2023-05-02T08:31:16;18.57;;;17.67;;
434;SDS011;204;48.942;9.256;2023-05-02T08:33:41;18.77;;;17.87;;
434;SDS011;204;48.942;9.256;2023-05-02T08:36:13;19.17;;;18.10;;
434;SDS011;204;48.942;9.256;2023-05-02T08:38:41;19.97;;;18.97;;
434;SDS011;204;48.942;9.256;2023-05-02T08:41:10;19.40;;;18.40;;
434;SDS011;204;48.942;9.256;2023-05-02T08:43:38;20.50;;;19.50;;
434;SDS011;204;48.942;9.256;2023-05-02T08:46:05;18.33;;;17.43;;
434;SDS011;204;48.942;9.256;2023-05-02T08:48:34;19.33;;;18.33;;
434;SDS011;204;48.942;9.256;2023-05-02T08:51:01;20.07;;;19.00;;
434;SDS011;204;48.942;9.256;2023-05-02T08:53:29;18.30;;;17.40;;
434;SDS011;204;48.942;9.256;2023-05-02T08:55:58;22.27;;;19.13;;
434;SDS011;204;48.942;9.256;2023-05-02T08:58:24;18.53;;;17.63;;
434;SDS011;204;48.942;9.256;2023-05-02T09:00:50;18.80;;;17.90;;
434;SDS011;204;48.942;9.256;2023-05-02T09:06:03;23.10;;;18.57;;
434;SDS011;204;48.942;9.256;2023-05-02T09:08:32;18.83;;;17.77;;
434;SDS011;204;48.942;9.256;2023-05-02T09:10:59;18.87;;;17.87;;
434;SDS011;204;48.942;9.256;2023-05-02T09:16:07;19.37;;;18.37;;
434;SDS011;204;48.942;9.256;2023-05-02T09:18:55;21.47;;;18.57;;
434;SDS011;204;48.942;9.256;2023-05-02T09:23:54;19.53;;;18.53;;
434;SDS011;204;48.942;9.256;2023-05-02T09:26:22;19.77;;;18.77;;
434;SDS011;204;48.942;9.256;2023-05-02T09:28:55;20.17;;;18.50;;
434;SDS011;204;48.942;9.256;2023-05-02T09:31:22;17.83;;;16.93;;
434;SDS011;204;48.942;9.256;2023-05-02T09:33:52;18.50;;;17.60;;
434;SDS011;204;48.942;9.256;2023-05-02T09:36:19;17.33;;;16.37;;
434;SDS011;204;48.942;9.256;2023-05-02T09:38:46;18.50;;;17.60;;
434;SDS011;204;48.942;9.256;2023-05-02T09:41:13;19.67;;;16.77;;
434;SDS011;204;48.942;9.256;2023-05-02T09:43:39;18.20;;;17.30;;
434;SDS011;204;48.942;9.256;2023-05-02T09:46:06;18.63;;;17.73;;
434;SDS011;204;48.942;9.256;2023-05-02T09:48:50;17.20;;;16.30;;
434;SDS011;204;48.942;9.256;2023-05-02T09:51:17;18.13;;;17.17;;
434;SDS011;204;48.942;9.256;2023-05-02T09:53:45;19.37;;;18.37;;
434;SDS011;204;48.942;9.256;2023-05-02T09:56:11;16.93;;;16.07;;
434;SDS011;204;48.942;9.256;2023-05-02T09:58:37;18.63;;;17.73;;
434;SDS011;204;48.942;9.256;2023-05-02T10:01:02;18.67;;;17.77;;
434;SDS011;204;48.942;9.256;2023-05-02T10:03:28;20.53;;;19.53;;
434;SDS011;204;48.942;9.256;2023-05-02T10:05:56;17.30;;;16.40;;
434;SDS011;204;48.942;9.256;2023-05-02T10:08:25;17.63;;;16.73;;
434;SDS011;204;48.942;9.256;2023-05-02T10:10:56;18.00;;;16.17;;
434;SDS011;204;48.942;9.256;2023-05-02T10:13:23;17.93;;;17.03;;
434;SDS011;204;48.942;9.256;2023-05-02T10:16:26;17.47;;;16.57;;
434;SDS011;204;48.942;9.256;2023-05-02T10:18:47;19.80;;;17.00;;
434;SDS011;204;48.942;9.256;2023-05-02T10:21:23;19.23;;;18.23;;
434;SDS011;204;48.942;9.256;2023-05-02T10:23:53;20.23;;;17.37;;
434;SDS011;204;48.942;9.256;2023-05-02T10:26:19;17.90;;;16.70;;
434;SDS011;204;48.942;9.256;2023-05-02T10:28:48;17.73;;;16.33;;
434;SDS011;204;48.942;9.256;2023-05-02T10:31:15;18.43;;;17.53;;
434;SDS011;204;48.942;9.256;2023-05-02T10:33:42;19.90;;;18.60;;
434;SDS011;204;48.942;9.256;2023-05-02T10:36:09;17.33;;;16.43;;
434;SDS011;204;48.942;9.256;2023-05-02T10:38:38;18.87;;;17.93;;
434;SDS011;204;48.942;9.256;2023-05-02T10:41:13;18.17;;;17.27;;
434;SDS011;204;48.942;9.256;2023-05-02T10:43:48;16.67;;;15.87;;
434;SDS011;204;48.942;9.256;2023-05-02T10:49:05;16.50;;;15.70;;
434;SDS011;204;48.942;9.256;2023-05-02T10:51:32;17.93;;;17.03;;
434;SDS011;204;48.942;9.256;2023-05-02T10:54:18;17.07;;;16.17;;
434;SDS011;204;48.942;9.256;2023-05-02T10:57:06;16.50;;;15.70;;
434;SDS011;204;48.942;9.256;2023-05-02T10:59:39;16.60;;;15.80;;
434;SDS011;204;48.942;9.256;2023-05-02T11:05:02;19.10;;;18.10;;
434;SDS011;204;48.942;9.256;2023-05-02T11:07:29;16.50;;;15.70;;
434;SDS011;204;48.942;9.256;2023-05-02T11:12:50;16.67;;;15.83;;
434;SDS011;204;48.942;9.256;2023-05-02T11:17:57;18.57;;;17.67;;
434;SDS011;204;48.942;9.256;2023-05-02T11:20:37;19.37;;;18.37;;
434;SDS011;204;48.942;9.256;2023-05-02T11:25:46;20.50;;;19.50;;
434;SDS011;204;48.942;9.256;2023-05-02T11:33:57;16.73;;;15.90;;
434;SDS011;204;48.942;9.256;2023-05-02T11:36:30;17.93;;;17.03;;
434;SDS011;204;48.942;9.256;2023-05-02T11:39:03;18.20;;;17.30;;
434;SDS011;204;48.942;9.256;2023-05-02T11:41:41;17.67;;;16.77;;
434;SDS011;204;48.942;9.256;2023-05-02T11:44:07;18.83;;;17.90;;
434;SDS011;204;48.942;9.256;2023-05-02T11:46:37;17.93;;;17.03;;
434;SDS011;204;48.942;9.256;2023-05-02T11:49:05;18.63;;;17.73;;
434;SDS011;204;48.942;9.256;2023-05-02T11:51:31;19.57;;;18.57;;
434;SDS011;204;48.942;9.256;2023-05-02T11:53:57;19.10;;;18.10;;
434;SDS011;204;48.942;9.256;2023-05-02T11:56:23;20.83;;;19.83;;
434;SDS011;204;48.942;9.256;2023-05-02T11:58:56;23.33;;;22.17;;
434;SDS011;204;48.942;9.256;2023-05-02T12:01:27;28.93;;;26.03;;
434;SDS011;204;48.942;9.256;2023-05-02T12:04:05;31.70;;;27.67;;
434;SDS011;204;48.942;9.256;2023-05-02T12:06:32;33.87;;;30.77;;
434;SDS011;204;48.942;9.256;2023-05-02T12:11:32;34.30;;;30.90;;
434;SDS011;204;48.942;9.256;2023-05-02T12:13:58;37.63;;;35.27;;
434;SDS011;204;48.942;9.256;2023-05-02T12:16:25;36.50;;;33.40;;
434;SDS011;204;48.942;9.256;2023-05-02T12:18:51;41.37;;;37.80;;
434;SDS011;204;48.942;9.256;2023-05-02T12:21:16;41.40;;;36.87;;
434;SDS011;204;48.942;9.256;2023-05-02T12:23:42;41.23;;;37.67;;
434;SDS011;204;48.942;9.256;2023-05-02T12:26:15;40.60;;;35.57;;
434;SDS011;204;48.942;9.256;2023-05-02T12:28:55;38.70;;;32.87;;
434;SDS011;204;48.942;9.256;2023-05-02T12:31:23;38.10;;;32.53;;
434;SDS011;204;48.942;9.256;2023-05-02T12:33:49;31.83;;;30.03;;
434;SDS011;204;48.942;9.256;2023-05-02T12:36:17;28.83;;;27.43;;
434;SDS011;204;48.942;9.256;2023-05-02T12:43:58;28.50;;;24.90;;
434;SDS011;204;48.942;9.256;2023-05-02T12:46:24;24.03;;;22.20;;
434;SDS011;204;48.942;9.256;2023-05-02T12:49:04;23.93;;;22.00;;
434;SDS011;204;48.942;9.256;2023-05-02T12:51:33;23.63;;;22.17;;
434;SDS011;204;48.942;9.256;2023-05-02T12:53:59;23.30;;;21.87;;
434;SDS011;204;48.942;9.256;2023-05-02T12:56:24;21.07;;;20.00;;
434;SDS011;204;48.942;9.256;2023-05-02T12:58:55;20.83;;;19.80;;
434;SDS011;204;48.942;9.256;2023-05-02T13:01:25;22.10;;;21.00;;
434;SDS011;204;48.942;9.256;2023-05-02T13:03:51;19.27;;;18.23;;
434;SDS011;204;48.942;9.256;2023-05-02T13:06:17;19.77;;;18.77;;
434;SDS011;204;48.942;9.256;2023-05-02T13:08:43;20.20;;;18.20;;
434;SDS011;204;48.942;9.256;2023-05-02T13:11:09;20.43;;;19.43;;
434;SDS011;204;48.942;9.256;2023-05-02T13:13:35;20.43;;;19.43;;
434;SDS011;204;48.942;9.256;2023-05-02T13:16:01;20.10;;;18.10;;
434;SDS011;204;48.942;9.256;2023-05-02T13:18:27;18.70;;;17.80;;
434;SDS011;204;48.942;9.256;2023-05-02T13:20:53;20.40;;;19.33;;
434;SDS011;204;48.942;9.256;2023-05-02T13:23:18;17.57;;;16.67;;
434;SDS011;204;48.942;9.256;2023-05-02T13:25:44;19.13;;;16.73;;
434;SDS011;204;48.942;9.256;2023-05-02T13:28:10;21.33;;;16.23;;
434;SDS011;204;48.942;9.256;2023-05-02T13:30:35;15.20;;;14.40;;
434;SDS011;204;48.942;9.256;2023-05-02T13:33:01;15.97;;;15.17;;
434;SDS011;204;48.942;9.256;2023-05-02T13:35:26;15.13;;;14.33;;
434;SDS011;204;48.942;9.256;2023-05-02T13:37:52;13.97;;;13.27;;
434;SDS011;204;48.942;9.256;2023-05-02T13:40:17;15.03;;;14.00;;
434;SDS011;204;48.942;9.256;2023-05-02T13:42:43;15.03;;;14.23;;
434;SDS011;204;48.942;9.256;2023-05-02T13:45:09;15.10;;;14.30;;
434;SDS011;204;48.942;9.256;2023-05-02T13:47:35;13.97;;;13.27;;
434;SDS011;204;48.942;9.256;2023-05-02T13:50:00;15.33;;;11.97;;
434;SDS011;204;48.942;9.256;2023-05-02T13:52:26;12.93;;;12.23;;
434;SDS011;204;48.942;9.256;2023-05-02T13:54:52;12.20;;;11.60;;
434;SDS011;204;48.942;9.256;2023-05-02T13:57:17;12.67;;;12.00;;
434;SDS011;204;48.942;9.256;2023-05-02T13:59:43;11.80;;;11.20;;
434;SDS011;204;48.942;9.256;2023-05-02T14:02:08;14.57;;;11.87;;
434;SDS011;204;48.942;9.256;2023-05-02T14:04:34;13.83;;;13.13;;
434;SDS011;204;48.942;9.256;2023-05-02T14:07:00;12.40;;;11.80;;
434;SDS011;204;48.942;9.256;2023-05-02T14:09:25;12.03;;;11.43;;
434;SDS011;204;48.942;9.256;2023-05-02T14:11:51;13.33;;;12.60;;
434;SDS011;204;48.942;9.256;2023-05-02T14:14:17;12.03;;;9.83;;
434;SDS011;204;48.942;9.256;2023-05-02T14:16:42;12.80;;;11.83;;
434;SDS011;204;48.942;9.256;2023-05-02T14:19:08;12.57;;;11.93;;
434;SDS011;204;48.942;9.256;2023-05-02T14:21:34;12.73;;;10.90;;
434;SDS011;204;48.942;9.256;2023-05-02T14:24:01;11.70;;;11.10;;
434;SDS011;204;48.942;9.256;2023-05-02T14:26:26;10.83;;;10.17;;
434;SDS011;204;48.942;9.256;2023-05-02T14:28:52;12.67;;;10.87;;
434;SDS011;204;48.942;9.256;2023-05-02T14:31:17;10.00;;;9.43;;
434;SDS011;204;48.942;9.256;2023-05-02T14:33:43;9.70;;;8.83;;
434;SDS011;204;48.942;9.256;2023-05-02T14:36:09;9.00;;;8.50;;
434;SDS011;204;48.942;9.256;2023-05-02T14:38:34;8.50;;;8.00;;
434;SDS011;204;48.942;9.256;2023-05-02T14:41:00;8.93;;;7.87;;
434;SDS011;204;48.942;9.256;2023-05-02T14:43:27;9.80;;;9.07;;
434;SDS011;204;48.942;9.256;2023-05-02T14:45:52;9.07;;;8.57;;
434;SDS011;204;48.942;9.256;2023-05-02T14:48:18;11.40;;;10.00;;
434;SDS011;204;48.942;9.256;2023-05-02T14:50:43;8.70;;;8.20;;
434;SDS011;204;48.942;9.256;2023-05-02T14:53:09;10.03;;;8.93;;
434;SDS011;204;48.942;9.256;2023-05-02T14:55:36;9.40;;;8.90;;
434;SDS011;204;48.942;9.256;2023-05-02T14:58:03;10.40;;;9.20;;
434;SDS011;204;48.942;9.256;2023-05-02T15:00:33;9.77;;;9.27;;
434;SDS011;204;48.942;9.256;2023-05-02T15:03:01;11.73;;;8.77;;
434;SDS011;204;48.942;9.256;2023-05-02T15:05:28;8.20;;;7.80;;
434;SDS011;204;48.942;9.256;2023-05-02T15:07:54;8.80;;;7.77;;
434;SDS011;204;48.942;9.256;2023-05-02T15:10:20;8.83;;;8.33;;
434;SDS011;204;48.942;9.256;2023-05-02T15:12:45;8.10;;;7.70;;
434;SDS011;204;48.942;9.256;2023-05-02T15:15:14;7.20;;;6.90;;
434;SDS011;204;48.942;9.256;2023-05-02T15:17:41;6.77;;;6.30;;
434;SDS011;204;48.942;9.256;2023-05-02T15:20:07;8.13;;;7.73;;
434;SDS011;204;48.942;9.256;2023-05-02T15:22:33;7.50;;;6.90;;
434;SDS011;204;48.942;9.256;2023-05-02T15:24:58;7.03;;;6.63;;
434;SDS011;204;48.942;9.256;2023-05-02T15:27:24;7.50;;;6.43;;
434;SDS011;204;48.942;9.256;2023-05-02T15:29:49;8.80;;;7.90;;
434;SDS011;204;48.942;9.256;2023-05-02T15:32:15;7.50;;;7.10;;
434;SDS011;204;48.942;9.256;2023-05-02T15:34:40;8.10;;;6.50;;
434;SDS011;204;48.942;9.256;2023-05-02T15:37:06;8.47;;;6.33;;
434;SDS011;204;48.942;9.256;2023-05-02T15:39:32;6.90;;;6.50;;
434;SDS011;204;48.942;9.256;2023-05-02T15:41:57;8.00;;;7.20;;
434;SDS011;204;48.942;9.256;2023-05-02T15:44:26;5.80;;;5.50;;
434;SDS011;204;48.942;9.256;2023-05-02T15:46:52;6.57;;;6.17;;
434;SDS011;204;48.942;9.256;2023-05-02T15:49:19;6.50;;;5.07;;
434;SDS011;204;48.942;9.256;2023-05-02T15:51:48;5.33;;;5.03;;
434;SDS011;204;48.942;9.256;2023-05-02T15:54:14;5.53;;;5.23;;
434;SDS011;204;48.942;9.256;2023-05-02T15:56:39;5.23;;;4.73;;
434;SDS011;204;48.942;9.256;2023-05-02T15:59:05;5.67;;;5.20;;
434;SDS011;204;48.942;9.256;2023-05-02T16:01:30;5.13;;;4.23;;
434;SDS011;204;48.942;9.256;2023-05-02T16:03:56;5.03;;;4.50;;
434;SDS011;204;48.942;9.256;2023-05-02T16:06:21;4.73;;;4.43;;
434;SDS011;204;48.942;9.256;2023-05-02T16:08:47;3.90;;;3.63;;
434;SDS011;204;48.942;9.256;2023-05-02T16:11:13;3.90;;;3.70;;
434;SDS011;204;48.942;9.256;2023-05-02T16:13:38;3.27;;;3.07;;
434;SDS011;204;48.942;9.256;2023-05-02T16:16:04;4.83;;;4.43;;
434;SDS011;204;48.942;9.256;2023-05-02T16:18:31;4.67;;;4.37;;
434;SDS011;204;48.942;9.256;2023-05-02T16:20:57;4.13;;;3.60;;
434;SDS011;204;48.942;9.256;2023-05-02T16:23:23;3.00;;;2.40;;
434;SDS011;204;48.942;9.256;2023-05-02T16:25:55;2.30;;;2.10;;